EVLA/LPX METAR and TAF weather

Enter ICAO airport designator
Station Type Date Time Source
EVLA METAR 2018/12/10 19:20 UTC NOAA

EVLA 101920Z AUTO 15005KT 9999 SCT022/// BKN029/// BKN034/// 02/02 Q0999


Station Type Date Time Source
EVLA Decoded METAR 2018/12/10 19:20 UTC NOAA

Liepaja International Airport, Latvia (EVLA) 56-31N 021-05E
Dec 10, 2018 - 02:20 PM EST / 2018.12.10 1920 UTC
Wind: from the SSE (150 degrees) at 6 MPH (5 KT):0
Visibility: greater than 7 mile(s):0
Sky conditions: mostly cloudy
Temperature: 35 F (2 C)
Windchill: 30 F (-1 C):1
Dew Point: 35 F (2 C)
Relative Humidity: 100%
Pressure (altimeter): 29.50 in. Hg (0999 hPa)
ob: EVLA 101920Z AUTO 15005KT 9999 SCT022/// BKN029/// BKN034/// 02/02 Q0999
cycle: 19

Station Type Date Time Source
EVLA TAF 2018/12/10 18:04 UTC NOAA

TAF EVLA 101702Z 1018/1118 16005KT 9999 SCT030
TEMPO 1018/1022 2000 BR SCT005
BECMG 1102/1104 4000 BR BKN005 OVC010
TEMPO 1104/1112 0700 FZFG BKN002
TEMPO 1112/1118 5000 OVC010


Example: see airport list